createdAt,value
2017-06-17T00:00:06.178Z,0
2017-06-17T00:01:06.778Z,0
2017-06-17T00:02:05.833Z,0
2017-06-17T00:03:06.418Z,0
2017-06-17T00:04:06.412Z,0
2017-06-17T00:05:06.398Z,0
2017-06-17T00:06:06.229Z,0
2017-06-17T00:07:06.412Z,0
2017-06-17T00:08:06.049Z,0
2017-06-17T00:09:06.011Z,0
2017-06-17T00:10:06.008Z,0
2017-06-17T00:11:05.986Z,0
2017-06-17T00:12:06.558Z,0
2017-06-17T00:13:06.358Z,0
2017-06-17T00:14:06.254Z,0
2017-06-17T00:15:06.241Z,0
2017-06-17T00:16:06.218Z,0
2017-06-17T00:17:05.878Z,0
2017-06-17T00:18:06.218Z,0
2017-06-17T00:19:06.158Z,0
2017-06-17T00:20:06.540Z,0
2017-06-17T00:21:05.506Z,0
2017-06-17T00:22:05.797Z,0
2017-06-17T00:23:06.529Z,0
2017-06-17T00:24:06.052Z,0
2017-06-17T00:25:06.458Z,0
2017-06-17T00:26:06.096Z,0
2017-06-17T00:27:06.038Z,0
2017-06-17T00:28:06.117Z,0
2017-06-17T00:29:05.668Z,0
2017-06-17T00:30:05.780Z,0
2017-06-17T00:31:05.698Z,0
2017-06-17T00:32:05.697Z,0
2017-06-17T00:33:05.597Z,0
2017-06-17T00:34:05.903Z,0
2017-06-17T00:35:06.287Z,0
2017-06-17T00:36:05.894Z,0
2017-06-17T00:37:05.596Z,0
2017-06-17T00:38:05.508Z,0
2017-06-17T00:39:06.112Z,0
2017-06-17T00:40:05.500Z,0
2017-06-17T00:41:05.300Z,0
2017-06-17T00:42:06.207Z,0
2017-06-17T00:43:05.135Z,0
2017-06-17T00:44:05.124Z,0
2017-06-17T00:45:05.456Z,0
2017-06-17T00:46:05.674Z,0
2017-06-17T00:47:05.385Z,0
2017-06-17T00:48:05.969Z,0
2017-06-17T00:49:05.016Z,0
2017-06-17T00:50:05.011Z,0
2017-06-17T00:51:05.321Z,0
2017-06-17T00:52:05.281Z,0
2017-06-17T00:53:05.557Z,0
2017-06-17T00:54:05.867Z,0
2017-06-17T00:55:05.533Z,0
2017-06-17T00:56:05.194Z,0
2017-06-17T00:57:05.660Z,0
2017-06-17T00:58:05.888Z,0
2017-06-17T00:59:05.899Z,0
2017-06-17T01:00:05.750Z,0
2017-06-17T01:01:05.165Z,0
2017-06-17T01:02:05.749Z,0
2017-06-17T01:03:05.445Z,0
2017-06-17T01:04:05.069Z,0
2017-06-17T01:05:05.388Z,0
2017-06-17T01:06:05.349Z,0
2017-06-17T01:07:04.757Z,0
2017-06-17T01:08:05.012Z,0
2017-06-17T01:09:05.287Z,0
2017-06-17T01:10:05.330Z,0
2017-06-17T01:11:05.270Z,0
2017-06-17T01:12:04.929Z,0
2017-06-17T01:13:05.527Z,0
2017-06-17T01:14:05.271Z,0
2017-06-17T01:15:04.571Z,0
2017-06-17T01:16:04.862Z,0
2017-06-17T01:17:05.097Z,0
2017-06-17T01:18:05.151Z,0
2017-06-17T01:19:05.138Z,0
2017-06-17T01:20:05.101Z,0
2017-06-17T01:21:05.097Z,0
2017-06-17T01:22:05.163Z,0
2017-06-17T01:23:05.107Z,0
2017-06-17T01:24:05.063Z,0
2017-06-17T01:25:05.035Z,0
2017-06-17T01:26:05.019Z,0
2017-06-17T01:27:04.670Z,0
2017-06-17T01:28:04.955Z,0
2017-06-17T01:29:05.277Z,0
2017-06-17T01:30:04.940Z,0
2017-06-17T01:31:05.243Z,0
2017-06-17T01:32:04.988Z,0
2017-06-17T01:33:04.262Z,0
2017-06-17T01:34:04.869Z,0
2017-06-17T01:35:05.186Z,0
2017-06-17T01:36:05.119Z,0
2017-06-17T01:37:04.563Z,0
2017-06-17T01:38:04.850Z,0
2017-06-17T01:39:05.093Z,0
2017-06-17T01:40:04.776Z,0
2017-06-17T01:41:04.743Z,0
2017-06-17T01:42:05.040Z,0
2017-06-17T01:43:04.706Z,0
2017-06-17T01:44:04.416Z,0
2017-06-17T01:45:04.984Z,0
2017-06-17T01:46:04.350Z,0
2017-06-17T01:47:04.399Z,0
2017-06-17T01:48:04.935Z,0
2017-06-17T01:49:04.906Z,0
2017-06-17T01:50:04.587Z,0
2017-06-17T01:51:04.272Z,0
2017-06-17T01:52:04.642Z,0
2017-06-17T01:53:04.849Z,0
2017-06-17T01:54:04.893Z,0
2017-06-17T01:55:03.584Z,0
2017-06-17T01:56:04.858Z,0
2017-06-17T01:57:04.500Z,0
2017-06-17T01:58:04.444Z,0
2017-06-17T01:59:04.419Z,0
2017-06-17T02:00:04.440Z,0
2017-06-17T02:01:04.390Z,0
2017-06-17T02:02:04.408Z,0
2017-06-17T02:03:04.379Z,0
2017-06-17T02:04:04.438Z,0
2017-06-17T02:05:04.326Z,0
2017-06-17T02:06:04.377Z,0
2017-06-17T02:07:04.047Z,0
2017-06-17T02:08:04.299Z,0
2017-06-17T02:09:03.952Z,0
2017-06-17T02:10:03.959Z,0
2017-06-17T02:11:03.947Z,0
2017-06-17T02:12:03.935Z,0
2017-06-17T02:13:03.900Z,0
2017-06-17T02:14:04.489Z,0
2017-06-17T02:15:03.845Z,0
2017-06-17T02:16:04.158Z,0
2017-06-17T02:17:04.467Z,0
2017-06-17T02:18:03.804Z,0
2017-06-17T02:19:03.606Z,0
2017-06-17T02:20:04.074Z,0
2017-06-17T02:21:03.482Z,0
2017-06-17T02:22:04.044Z,0
2017-06-17T02:23:04.131Z,0
2017-06-17T02:24:04.005Z,0
2017-06-17T02:25:03.996Z,0
2017-06-17T02:26:03.979Z,0
2017-06-17T02:27:03.961Z,0
2017-06-17T02:28:04.239Z,0
2017-06-17T02:29:04.241Z,0
2017-06-17T02:30:03.594Z,0
2017-06-17T02:31:03.914Z,0
2017-06-17T02:32:03.571Z,0
2017-06-17T02:33:03.661Z,0
2017-06-17T02:34:03.721Z,0
2017-06-17T02:35:03.831Z,0
2017-06-17T02:36:03.520Z,0
2017-06-17T02:37:03.473Z,0
2017-06-17T02:38:03.186Z,0
2017-06-17T02:39:03.760Z,0
2017-06-17T02:40:03.130Z,0
2017-06-17T02:41:03.123Z,0
2017-06-17T02:42:03.386Z,0
2017-06-17T02:43:03.372Z,0
2017-06-17T02:44:03.373Z,0
2017-06-17T02:45:03.351Z,0
2017-06-17T02:46:03.957Z,0
2017-06-17T02:47:03.934Z,0
2017-06-17T02:48:03.925Z,0
2017-06-17T02:49:03.619Z,0
2017-06-17T02:50:03.350Z,0
2017-06-17T02:51:03.652Z,0
2017-06-17T02:52:03.830Z,0
2017-06-17T02:53:03.828Z,0
2017-06-17T02:54:02.902Z,0
2017-06-17T02:55:02.880Z,0
2017-06-17T02:56:03.801Z,0
2017-06-17T02:57:03.446Z,0
2017-06-17T02:58:03.450Z,0
2017-06-17T02:59:02.820Z,0
2017-06-17T03:00:03.705Z,0
2017-06-17T03:01:03.384Z,0
2017-06-17T03:02:03.671Z,0
2017-06-17T03:03:03.661Z,0
2017-06-17T03:04:03.644Z,0
2017-06-17T03:05:03.328Z,0
2017-06-17T03:06:02.992Z,0
2017-06-17T03:07:02.657Z,0
2017-06-17T03:08:03.581Z,0
2017-06-17T03:09:02.933Z,0
2017-06-17T03:10:03.241Z,0
2017-06-17T03:11:03.548Z,0
2017-06-17T03:12:02.889Z,0
2017-06-17T03:13:03.335Z,0
2017-06-17T03:14:02.907Z,0
2017-06-17T03:15:03.260Z,0
2017-06-17T03:16:03.131Z,0
2017-06-17T03:17:03.431Z,0
2017-06-17T03:18:02.842Z,0
2017-06-17T03:19:02.764Z,0
2017-06-17T03:20:03.372Z,0
2017-06-17T03:21:02.722Z,0
2017-06-17T03:22:03.022Z,0
2017-06-17T03:23:02.382Z,0
2017-06-17T03:24:02.985Z,0
2017-06-17T03:25:02.659Z,0
2017-06-17T03:26:02.658Z,0
2017-06-17T03:27:02.651Z,0
2017-06-17T03:28:02.919Z,0
2017-06-17T03:29:02.401Z,0
2017-06-17T03:30:02.893Z,0
2017-06-17T03:31:02.573Z,0
2017-06-17T03:32:02.863Z,0
2017-06-17T03:33:02.833Z,0
2017-06-17T03:34:03.121Z,0
2017-06-17T03:35:02.220Z,0
2017-06-17T03:36:02.791Z,0
2017-06-17T03:37:02.765Z,5
2017-06-17T03:38:02.201Z,5
2017-06-17T03:39:02.862Z,5
2017-06-17T03:40:02.765Z,5
2017-06-17T03:41:02.710Z,5
2017-06-17T03:42:02.452Z,5
2017-06-17T03:43:03.041Z,5
2017-06-17T03:44:03.181Z,5
2017-06-17T03:45:02.022Z,5
2017-06-17T03:46:02.915Z,5
2017-06-17T03:47:02.910Z,5
2017-06-17T03:48:02.291Z,5
2017-06-17T03:49:01.964Z,5
2017-06-17T03:50:02.640Z,5
2017-06-17T03:51:02.986Z,5
2017-06-17T03:52:02.819Z,5
2017-06-17T03:53:02.492Z,5
2017-06-17T03:54:02.520Z,5
2017-06-17T03:55:02.143Z,5
2017-06-17T03:56:02.780Z,5
2017-06-17T03:57:02.888Z,5
2017-06-17T03:58:02.452Z,5
2017-06-17T03:59:02.421Z,5
2017-06-17T04:00:02.382Z,5
2017-06-17T04:01:02.463Z,5
2017-06-17T04:02:02.371Z,5
2017-06-17T04:03:02.028Z,5
2017-06-17T04:04:02.628Z,5
2017-06-17T04:05:02.672Z,10
2017-06-17T04:06:02.590Z,10
2017-06-17T04:07:02.591Z,10
2017-06-17T04:08:02.362Z,10
2017-06-17T04:09:01.912Z,10
2017-06-17T04:10:01.891Z,15
2017-06-17T04:11:02.502Z,15
2017-06-17T04:12:01.871Z,15
2017-06-17T04:13:02.156Z,15
2017-06-17T04:14:02.161Z,10
2017-06-17T04:15:02.442Z,10
2017-06-17T04:16:02.095Z,10
2017-06-17T04:17:02.529Z,10
2017-06-17T04:18:02.431Z,10
2017-06-17T04:19:01.820Z,10
2017-06-17T04:20:02.432Z,10
2017-06-17T04:21:02.031Z,10
2017-06-17T04:22:02.422Z,10
2017-06-17T04:23:02.062Z,10
2017-06-17T04:24:01.673Z,10
2017-06-17T04:25:01.955Z,10
2017-06-17T04:26:01.422Z,10
2017-06-17T04:27:02.241Z,10
2017-06-17T04:28:01.610Z,10
2017-06-17T04:29:01.892Z,10
2017-06-17T04:30:02.301Z,10
2017-06-17T04:31:01.576Z,10
2017-06-17T04:32:02.200Z,15
2017-06-17T04:33:01.204Z,15
2017-06-17T04:34:02.113Z,15
2017-06-17T04:35:02.132Z,15
2017-06-17T04:36:01.480Z,15
2017-06-17T04:37:01.451Z,15
2017-06-17T04:38:02.038Z,15
2017-06-17T04:39:01.423Z,15
2017-06-17T04:40:01.730Z,15
2017-06-17T04:41:01.703Z,10
2017-06-17T04:42:01.681Z,10
2017-06-17T04:43:02.051Z,10
2017-06-17T04:44:01.333Z,10
2017-06-17T04:45:01.932Z,10
2017-06-17T04:46:01.621Z,10
2017-06-17T04:47:01.581Z,10
2017-06-17T04:48:01.582Z,10
2017-06-17T04:49:01.240Z,10
2017-06-17T04:50:01.528Z,15
2017-06-17T04:51:01.218Z,15
2017-06-17T04:52:01.241Z,15
2017-06-17T04:53:01.498Z,15
2017-06-17T04:54:01.473Z,15
2017-06-17T04:55:01.233Z,15
2017-06-17T04:56:01.458Z,10
2017-06-17T04:57:01.093Z,10
2017-06-17T04:58:01.430Z,10
2017-06-17T04:59:01.391Z,10
2017-06-17T05:00:01.053Z,10
2017-06-17T05:01:00.733Z,15
2017-06-17T05:02:01.332Z,15
2017-06-17T05:03:01.001Z,15
2017-06-17T05:04:01.369Z,15
2017-06-17T05:05:00.994Z,15
2017-06-17T05:06:01.279Z,15
2017-06-17T05:07:00.935Z,15
2017-06-17T05:08:01.234Z,15
2017-06-17T05:09:01.530Z,15
2017-06-17T05:10:00.264Z,15
2017-06-17T05:11:01.221Z,15
2017-06-17T05:12:01.161Z,15
2017-06-17T05:13:01.665Z,15
2017-06-17T05:14:01.141Z,15
2017-06-17T05:15:01.451Z,15
2017-06-17T05:16:01.181Z,15
2017-06-17T05:17:01.095Z,15
2017-06-17T05:18:01.057Z,15
2017-06-17T05:19:01.370Z,15
2017-06-17T05:20:00.123Z,15
2017-06-17T05:21:01.343Z,20
2017-06-17T05:22:00.702Z,20
2017-06-17T05:23:00.433Z,20
2017-06-17T05:24:00.977Z,20
2017-06-17T05:25:01.023Z,20
2017-06-17T05:26:00.954Z,20
2017-06-17T05:27:00.331Z,25
2017-06-17T05:28:00.598Z,20
2017-06-17T05:29:00.892Z,25
2017-06-17T05:30:01.170Z,25
2017-06-17T05:31:00.546Z,25
2017-06-17T05:32:00.536Z,25
2017-06-17T05:33:00.839Z,25
2017-06-17T05:34:00.493Z,25
2017-06-17T05:35:00.192Z,25
2017-06-17T05:36:00.161Z,25
2017-06-17T05:37:00.770Z,25
2017-06-17T05:38:00.136Z,25
2017-06-17T05:39:00.142Z,20
2017-06-17T05:40:00.393Z,20
2017-06-17T05:41:00.373Z,20
2017-06-17T05:42:00.345Z,20
2017-06-17T05:43:00.633Z,20
2017-06-17T05:44:00.338Z,20
2017-06-17T05:45:00.943Z,20
2017-06-17T05:46:00.598Z,20
2017-06-17T05:47:00.891Z,20
2017-06-17T05:48:00.361Z,25
2017-06-17T05:49:00.257Z,25
2017-06-17T05:50:00.533Z,25
2017-06-17T05:51:00.214Z,25
2017-06-17T05:52:00.551Z,25
2017-06-17T05:53:00.829Z,30
2017-06-17T05:54:00.166Z,30
2017-06-17T05:55:00.450Z,30
2017-06-17T05:56:00.762Z,30
2017-06-17T05:57:00.716Z,30
2017-06-17T05:58:00.455Z,30
2017-06-17T05:59:00.381Z,30
2017-06-17T06:00:00.368Z,30
2017-06-17T06:01:00.343Z,35
2017-06-17T06:02:00.011Z,35
2017-06-17T06:03:00.328Z,35
2017-06-17T06:04:00.440Z,40
2017-06-17T06:05:00.282Z,40
2017-06-17T06:06:00.320Z,35
2017-06-17T06:07:00.236Z,40
2017-06-17T06:08:00.238Z,40
2017-06-17T06:09:00.305Z,45
2017-06-17T06:10:00.515Z,45
2017-06-17T06:11:00.011Z,50
2017-06-17T06:11:59.551Z,50
2017-06-17T06:13:00.172Z,55
2017-06-17T06:14:00.152Z,60
2017-06-17T06:15:00.236Z,65
2017-06-17T06:15:59.834Z,65
2017-06-17T06:17:00.091Z,70
2017-06-17T06:18:00.098Z,70
2017-06-17T06:19:00.359Z,70
2017-06-17T06:20:00.349Z,75
2017-06-17T06:21:00.325Z,70
2017-06-17T06:22:00.082Z,70
2017-06-17T06:23:00.008Z,70
2017-06-17T06:24:00.293Z,70
2017-06-17T06:25:00.285Z,70
2017-06-17T06:26:00.008Z,70
2017-06-17T06:26:59.936Z,75
2017-06-17T06:28:00.212Z,70
2017-06-17T06:28:59.887Z,70
2017-06-17T06:30:00.218Z,70
2017-06-17T06:30:59.857Z,75
2017-06-17T06:32:00.129Z,75
2017-06-17T06:33:00.147Z,70
2017-06-17T06:34:00.116Z,65
2017-06-17T06:35:00.092Z,65
2017-06-17T06:35:59.886Z,60
2017-06-17T06:36:59.768Z,65
2017-06-17T06:38:00.027Z,65
2017-06-17T06:39:00.043Z,65
2017-06-17T06:40:00.080Z,70
2017-06-17T06:40:59.702Z,65
2017-06-17T06:41:59.684Z,65
2017-06-17T06:42:59.992Z,65
2017-06-17T06:43:59.036Z,60
2017-06-17T06:44:59.622Z,60
2017-06-17T06:45:59.630Z,60
2017-06-17T06:46:59.606Z,60
2017-06-17T06:47:59.957Z,60
2017-06-17T06:48:59.591Z,55
2017-06-17T06:49:58.934Z,50
2017-06-17T06:50:59.220Z,50
2017-06-17T06:51:59.221Z,45
2017-06-17T06:52:59.203Z,45
2017-06-17T06:53:59.223Z,45
2017-06-17T06:54:59.582Z,45
2017-06-17T06:55:59.159Z,45
2017-06-17T06:56:59.771Z,45
2017-06-17T06:57:59.840Z,45
2017-06-17T06:58:59.130Z,45
2017-06-17T06:59:59.482Z,45
2017-06-17T07:00:59.714Z,45
2017-06-17T07:01:59.081Z,50
2017-06-17T07:02:59.453Z,50
2017-06-17T07:03:59.401Z,55
2017-06-17T07:04:59.680Z,55
2017-06-17T07:05:58.711Z,60
2017-06-17T07:06:59.600Z,65
2017-06-17T07:07:59.531Z,65
2017-06-17T07:08:59.358Z,70
2017-06-17T07:09:59.272Z,70
2017-06-17T07:10:58.732Z,80
2017-06-17T07:11:59.311Z,80
2017-06-17T07:12:59.325Z,80
2017-06-17T07:13:59.506Z,80
2017-06-17T07:14:59.165Z,75
2017-06-17T07:15:58.892Z,75
2017-06-17T07:16:58.530Z,75
2017-06-17T07:17:59.201Z,70
2017-06-17T07:18:59.122Z,75
2017-06-17T07:19:58.785Z,75
2017-06-17T07:20:59.152Z,70
2017-06-17T07:21:58.903Z,70
2017-06-17T07:22:58.808Z,70
2017-06-17T07:23:58.428Z,65
2017-06-17T07:24:59.025Z,65
2017-06-17T07:25:59.214Z,70
2017-06-17T07:26:59.062Z,70
2017-06-17T07:27:59.283Z,70
2017-06-17T07:28:58.953Z,70
2017-06-17T07:29:59.292Z,70
2017-06-17T07:30:59.465Z,75
2017-06-17T07:31:58.301Z,75
2017-06-17T07:32:58.936Z,75
2017-06-17T07:33:58.614Z,75
2017-06-17T07:34:58.896Z,80
2017-06-17T07:35:58.524Z,80
2017-06-17T07:36:58.227Z,85
2017-06-17T07:37:59.227Z,90
2017-06-17T07:38:59.133Z,90
2017-06-17T07:39:59.083Z,95
2017-06-17T07:40:58.335Z,85
2017-06-17T07:41:58.489Z,80
2017-06-17T07:42:59.058Z,80
2017-06-17T07:43:58.808Z,80
2017-06-17T07:44:58.102Z,75
2017-06-17T07:45:57.833Z,70
2017-06-17T07:46:58.682Z,65
2017-06-17T07:47:59.053Z,65
2017-06-17T07:48:59.229Z,70
2017-06-17T07:49:57.759Z,75
2017-06-17T07:50:58.876Z,75
2017-06-17T07:51:58.083Z,75
2017-06-17T07:52:59.005Z,80
2017-06-17T07:53:59.018Z,80
2017-06-17T07:54:58.264Z,80
2017-06-17T07:55:59.125Z,85
2017-06-17T07:56:58.553Z,95
2017-06-17T07:57:57.890Z,100
2017-06-17T07:58:58.821Z,100
2017-06-17T07:59:58.202Z,95
2017-06-17T08:00:58.525Z,100
2017-06-17T08:01:58.826Z,105
2017-06-17T08:02:58.432Z,115
2017-06-17T08:03:58.723Z,130
2017-06-17T08:04:57.808Z,125
2017-06-17T08:05:58.374Z,120
2017-06-17T08:06:58.563Z,115
2017-06-17T08:07:58.655Z,125
2017-06-17T08:08:58.663Z,125
2017-06-17T08:09:58.646Z,120
2017-06-17T08:10:58.476Z,120
2017-06-17T08:11:58.343Z,115
2017-06-17T08:12:57.681Z,105
2017-06-17T08:13:57.676Z,95
2017-06-17T08:14:58.675Z,95
2017-06-17T08:15:57.938Z,90
2017-06-17T08:16:58.246Z,90
2017-06-17T08:17:58.219Z,90
2017-06-17T08:18:58.206Z,90
2017-06-17T08:19:57.874Z,90
2017-06-17T08:20:57.882Z,90
2017-06-17T08:21:57.903Z,90
2017-06-17T08:22:57.836Z,90
2017-06-17T08:23:58.144Z,90
2017-06-17T08:24:58.443Z,90
2017-06-17T08:25:57.865Z,95
2017-06-17T08:26:58.098Z,100
2017-06-17T08:27:58.137Z,100
2017-06-17T08:28:58.056Z,95
2017-06-17T08:29:58.355Z,90
2017-06-17T08:30:57.735Z,90
2017-06-17T08:31:58.015Z,90
2017-06-17T08:32:58.100Z,90
2017-06-17T08:33:57.768Z,90
2017-06-17T08:34:58.282Z,85
2017-06-17T08:35:58.357Z,80
2017-06-17T08:36:57.333Z,80
2017-06-17T08:37:57.666Z,80
2017-06-17T08:38:57.909Z,85
2017-06-17T08:39:57.591Z,90
2017-06-17T08:40:57.873Z,105
2017-06-17T08:41:58.194Z,110
2017-06-17T08:42:58.169Z,110
2017-06-17T08:43:57.529Z,110
2017-06-17T08:44:57.835Z,110
2017-06-17T08:45:57.255Z,115
2017-06-17T08:46:57.835Z,120
2017-06-17T08:47:57.775Z,120
2017-06-17T08:48:57.882Z,135
2017-06-17T08:49:57.755Z,130
2017-06-17T08:50:57.734Z,130
2017-06-17T08:51:58.010Z,130
2017-06-17T08:52:58.010Z,130
2017-06-17T08:53:58.034Z,130
2017-06-17T08:54:58.023Z,135
2017-06-17T08:55:57.696Z,140
2017-06-17T08:56:57.677Z,140
2017-06-17T08:57:57.653Z,145
2017-06-17T08:58:57.921Z,145
2017-06-17T08:59:57.624Z,145
2017-06-17T09:00:57.737Z,150
2017-06-17T09:01:57.948Z,150
2017-06-17T09:02:57.563Z,145
2017-06-17T09:03:57.310Z,140
2017-06-17T09:04:57.846Z,140
2017-06-17T09:05:57.843Z,145
2017-06-17T09:06:57.833Z,150
2017-06-17T09:07:57.539Z,150
2017-06-17T09:08:57.494Z,145
2017-06-17T09:09:57.864Z,145
2017-06-17T09:10:57.471Z,135
2017-06-17T09:11:57.452Z,130
2017-06-17T09:12:57.754Z,125
2017-06-17T09:13:57.778Z,115
2017-06-17T09:14:57.697Z,115
2017-06-17T09:15:57.183Z,110
2017-06-17T09:16:57.062Z,110
2017-06-17T09:17:57.714Z,115
2017-06-17T09:18:57.342Z,120
2017-06-17T09:19:57.702Z,130
2017-06-17T09:20:57.635Z,130
2017-06-17T09:21:57.312Z,130
2017-06-17T09:22:57.072Z,130
2017-06-17T09:23:57.269Z,130
2017-06-17T09:24:57.264Z,135
2017-06-17T09:25:57.270Z,135
2017-06-17T09:26:57.227Z,135
2017-06-17T09:27:57.212Z,130
2017-06-17T09:28:57.190Z,130
2017-06-17T09:29:57.174Z,130
2017-06-17T09:30:56.863Z,130
2017-06-17T09:31:57.492Z,135
2017-06-17T09:32:56.841Z,140
2017-06-17T09:33:57.441Z,135
2017-06-17T09:34:56.802Z,125
2017-06-17T09:35:56.849Z,125
2017-06-17T09:36:57.394Z,125
2017-06-17T09:37:57.372Z,125
2017-06-17T09:38:57.054Z,120
2017-06-17T09:39:57.052Z,115
2017-06-17T09:40:56.712Z,115
2017-06-17T09:41:57.339Z,115
2017-06-17T09:42:57.304Z,115
2017-06-17T09:43:56.969Z,110
2017-06-17T09:44:56.678Z,110
2017-06-17T09:45:57.091Z,110
2017-06-17T09:46:57.260Z,115
2017-06-17T09:47:57.231Z,120
2017-06-17T09:48:56.610Z,125
2017-06-17T09:49:57.208Z,125
2017-06-17T09:50:56.871Z,125
2017-06-17T09:51:56.566Z,125
2017-06-17T09:52:56.962Z,125
2017-06-17T09:53:56.652Z,125
2017-06-17T09:54:56.243Z,120
2017-06-17T09:55:56.579Z,120
2017-06-17T09:56:56.879Z,120
2017-06-17T09:57:56.496Z,125
2017-06-17T09:58:56.238Z,130
2017-06-17T09:59:56.847Z,130
2017-06-17T10:00:57.071Z,125
2017-06-17T10:01:56.430Z,120
2017-06-17T10:02:56.436Z,115
2017-06-17T10:03:56.815Z,115
2017-06-17T10:04:56.792Z,105
2017-06-17T10:05:56.737Z,100
2017-06-17T10:06:56.369Z,95
2017-06-17T10:07:56.677Z,95
2017-06-17T10:08:56.352Z,90
2017-06-17T10:09:56.650Z,85
2017-06-17T10:10:56.934Z,80
2017-06-17T10:11:56.641Z,80
2017-06-17T10:12:56.302Z,80
2017-06-17T10:13:56.570Z,80
2017-06-17T10:14:56.267Z,80
2017-06-17T10:15:56.897Z,80
2017-06-17T10:16:55.954Z,75
2017-06-17T10:17:56.917Z,80
2017-06-17T10:18:56.200Z,85
2017-06-17T10:19:56.962Z,85
2017-06-17T10:20:56.524Z,80
2017-06-17T10:21:56.483Z,85
2017-06-17T10:22:56.159Z,85
2017-06-17T10:23:55.541Z,95
2017-06-17T10:24:55.819Z,100
2017-06-17T10:25:56.747Z,110
2017-06-17T10:26:56.431Z,115
2017-06-17T10:27:56.699Z,120
2017-06-17T10:28:56.710Z,130
2017-06-17T10:29:56.370Z,130
2017-06-17T10:30:56.360Z,125
2017-06-17T10:31:56.042Z,120
2017-06-17T10:32:56.391Z,125
2017-06-17T10:33:56.610Z,125
2017-06-17T10:34:56.334Z,120
2017-06-17T10:35:55.680Z,120
2017-06-17T10:36:56.112Z,120
2017-06-17T10:37:56.592Z,115
2017-06-17T10:38:56.564Z,115
2017-06-17T10:39:56.219Z,115
2017-06-17T10:40:55.930Z,115
2017-06-17T10:41:56.527Z,115
2017-06-17T10:42:56.499Z,125
2017-06-17T10:43:56.527Z,125
2017-06-17T10:44:56.491Z,130
2017-06-17T10:45:55.528Z,135
2017-06-17T10:46:56.191Z,135
2017-06-17T10:47:56.449Z,135
2017-06-17T10:48:56.127Z,130
2017-06-17T10:49:56.110Z,125
2017-06-17T10:50:56.079Z,120
2017-06-17T10:51:56.126Z,115
2017-06-17T10:52:56.362Z,120
2017-06-17T10:53:56.056Z,115
2017-06-17T10:54:56.039Z,110
2017-06-17T10:55:55.710Z,100
2017-06-17T10:56:55.709Z,95
2017-06-17T10:57:56.300Z,95
2017-06-17T10:58:55.991Z,95
2017-06-17T10:59:55.649Z,90
2017-06-17T11:00:55.626Z,95
2017-06-17T11:01:55.929Z,100
2017-06-17T11:02:55.637Z,105
2017-06-17T11:03:55.652Z,110
2017-06-17T11:04:55.893Z,115
2017-06-17T11:05:55.263Z,115
2017-06-17T11:06:55.572Z,110
2017-06-17T11:07:55.854Z,110
2017-06-17T11:08:55.237Z,110
2017-06-17T11:09:55.830Z,110
2017-06-17T11:10:55.492Z,110
2017-06-17T11:11:55.503Z,115
2017-06-17T11:12:55.806Z,115
2017-06-17T11:13:56.101Z,110
2017-06-17T11:14:55.464Z,105
2017-06-17T11:15:55.747Z,95
2017-06-17T11:16:56.042Z,90
2017-06-17T11:17:55.409Z,85
2017-06-17T11:18:55.400Z,90
2017-06-17T11:19:55.393Z,100
2017-06-17T11:20:55.699Z,105
2017-06-17T11:21:55.070Z,100
2017-06-17T11:22:55.953Z,95
2017-06-17T11:23:55.635Z,95
2017-06-17T11:24:55.340Z,90
2017-06-17T11:25:55.387Z,95
2017-06-17T11:26:55.307Z,100
2017-06-17T11:27:55.892Z,105
2017-06-17T11:28:55.278Z,110
2017-06-17T11:29:55.571Z,110
2017-06-17T11:30:55.548Z,110
2017-06-17T11:31:55.547Z,120
2017-06-17T11:32:55.222Z,125
2017-06-17T11:33:55.536Z,125
2017-06-17T11:34:55.493Z,135
2017-06-17T11:35:55.240Z,145
2017-06-17T11:36:55.485Z,150
2017-06-17T11:37:55.528Z,155
2017-06-17T11:38:55.455Z,160
2017-06-17T11:39:55.850Z,145
2017-06-17T11:40:55.441Z,130
2017-06-17T11:41:55.096Z,120
2017-06-17T11:42:54.776Z,120
2017-06-17T11:43:55.399Z,130
2017-06-17T11:44:55.370Z,125
2017-06-17T11:45:55.474Z,120
2017-06-17T11:46:55.668Z,120
2017-06-17T11:47:55.345Z,100
2017-06-17T11:48:55.434Z,95
2017-06-17T11:49:55.740Z,95
2017-06-17T11:50:55.102Z,95
2017-06-17T11:51:55.277Z,95
2017-06-17T11:52:55.398Z,95
2017-06-17T11:53:55.277Z,100
2017-06-17T11:54:55.668Z,105
2017-06-17T11:55:55.236Z,115
2017-06-17T11:56:55.309Z,115
2017-06-17T11:57:55.526Z,105
2017-06-17T11:58:55.509Z,95
2017-06-17T11:59:55.493Z,90
2017-06-17T12:00:55.477Z,95
2017-06-17T12:01:55.478Z,90
2017-06-17T12:02:55.455Z,85
2017-06-17T12:03:55.439Z,75
2017-06-17T12:04:55.437Z,75
2017-06-17T12:05:55.479Z,70
2017-06-17T12:06:55.098Z,70
2017-06-17T12:07:54.775Z,70
2017-06-17T12:08:55.410Z,65
2017-06-17T12:09:55.355Z,65
2017-06-17T12:10:55.031Z,70
2017-06-17T12:11:55.016Z,70
2017-06-17T12:12:54.998Z,80
2017-06-17T12:13:54.691Z,90
2017-06-17T12:14:55.015Z,90
2017-06-17T12:15:54.981Z,95
2017-06-17T12:16:54.949Z,95
2017-06-17T12:17:54.659Z,100
2017-06-17T12:18:54.927Z,105
2017-06-17T12:19:55.069Z,115
2017-06-17T12:20:55.237Z,135
2017-06-17T12:21:54.918Z,170
2017-06-17T12:22:54.891Z,210
2017-06-17T12:23:55.176Z,225
2017-06-17T12:24:54.873Z,225
2017-06-17T12:25:55.154Z,230
2017-06-17T12:26:55.131Z,245
2017-06-17T12:27:55.142Z,250
2017-06-17T12:28:54.518Z,270
2017-06-17T12:29:54.800Z,250
2017-06-17T12:30:54.770Z,245
2017-06-17T12:31:54.764Z,250
2017-06-17T12:32:54.764Z,245
2017-06-17T12:33:54.804Z,250
2017-06-17T12:34:54.806Z,255
2017-06-17T12:35:54.746Z,265
2017-06-17T12:36:54.401Z,275
2017-06-17T12:37:54.793Z,315
2017-06-17T12:38:54.978Z,370
2017-06-17T12:39:54.370Z,355
2017-06-17T12:40:54.663Z,300
2017-06-17T12:41:54.681Z,260
2017-06-17T12:42:54.936Z,265
2017-06-17T12:43:54.907Z,305
2017-06-17T12:44:54.914Z,295
2017-06-17T12:45:54.934Z,245
2017-06-17T12:46:54.701Z,200
2017-06-17T12:47:54.876Z,300
2017-06-17T12:48:54.239Z,315
2017-06-17T12:49:54.559Z,235
2017-06-17T12:50:54.649Z,215
2017-06-17T12:51:54.874Z,210
2017-06-17T12:52:54.224Z,230
2017-06-17T12:53:54.846Z,225
2017-06-17T12:54:54.819Z,225
2017-06-17T12:55:54.899Z,215
2017-06-17T12:56:53.922Z,205
2017-06-17T12:57:54.169Z,200
2017-06-17T12:58:54.800Z,185
2017-06-17T12:59:54.159Z,180
2017-06-17T13:00:54.450Z,190
2017-06-17T13:01:54.849Z,210
2017-06-17T13:02:54.144Z,195
2017-06-17T13:03:54.403Z,180
2017-06-17T13:04:54.399Z,170
2017-06-17T13:05:54.705Z,165
2017-06-17T13:06:53.440Z,155
2017-06-17T13:07:54.373Z,155
2017-06-17T13:08:54.365Z,135
2017-06-17T13:09:54.056Z,120
2017-06-17T13:10:54.657Z,105
2017-06-17T13:11:54.659Z,100
2017-06-17T13:12:54.072Z,85
2017-06-17T13:13:54.107Z,80
2017-06-17T13:14:54.670Z,80
2017-06-17T13:15:53.957Z,75
2017-06-17T13:16:53.966Z,70
2017-06-17T13:17:54.241Z,75
2017-06-17T13:18:54.248Z,75
2017-06-17T13:19:53.999Z,75
2017-06-17T13:20:53.608Z,80
2017-06-17T13:21:54.197Z,80
2017-06-17T13:22:53.901Z,80
2017-06-17T13:23:53.878Z,80
2017-06-17T13:24:54.199Z,75
2017-06-17T13:25:53.879Z,80
2017-06-17T13:26:54.139Z,85
2017-06-17T13:27:54.473Z,90
2017-06-17T13:28:54.259Z,90
2017-06-17T13:29:53.819Z,90
2017-06-17T13:30:54.429Z,95
2017-06-17T13:31:54.182Z,95
2017-06-17T13:32:54.420Z,100
2017-06-17T13:33:54.173Z,115
2017-06-17T13:34:53.746Z,140
2017-06-17T13:35:54.049Z,200
2017-06-17T13:36:53.749Z,245
2017-06-17T13:37:54.027Z,270
2017-06-17T13:38:54.091Z,280
2017-06-17T13:39:53.680Z,285
2017-06-17T13:40:54.310Z,200
2017-06-17T13:41:54.008Z,185
2017-06-17T13:42:54.286Z,225
2017-06-17T13:43:53.663Z,190
2017-06-17T13:44:54.011Z,195
2017-06-17T13:45:54.246Z,180
2017-06-17T13:46:54.247Z,160
2017-06-17T13:47:53.645Z,150
2017-06-17T13:48:53.932Z,140
2017-06-17T13:49:53.887Z,140
2017-06-17T13:50:53.898Z,135
2017-06-17T13:51:54.344Z,135
2017-06-17T13:52:53.891Z,135
2017-06-17T13:53:53.989Z,135
2017-06-17T13:54:53.234Z,140
2017-06-17T13:55:53.866Z,145
2017-06-17T13:56:54.169Z,145
2017-06-17T13:57:54.132Z,150
2017-06-17T13:58:54.175Z,150
2017-06-17T13:59:54.198Z,165
2017-06-17T14:00:53.840Z,165
2017-06-17T14:01:53.849Z,155
2017-06-17T14:02:53.768Z,150
2017-06-17T14:03:53.842Z,135
2017-06-17T14:04:53.435Z,120
2017-06-17T14:05:54.122Z,110
2017-06-17T14:06:53.703Z,95
2017-06-17T14:07:53.777Z,80
2017-06-17T14:08:53.399Z,75
2017-06-17T14:09:53.687Z,70
2017-06-17T14:10:54.006Z,60
2017-06-17T14:11:53.672Z,55
2017-06-17T14:12:53.063Z,55
2017-06-17T14:13:53.619Z,55